createdAt,value
2022-12-03T00:00:43.345Z,9.93
2022-12-03T00:03:10.236Z,9.77
2022-12-03T00:05:37.029Z,10.50
2022-12-03T00:08:03.964Z,10.55
2022-12-03T00:10:31.069Z,11.00
2022-12-03T00:12:57.917Z,11.15
2022-12-03T00:15:24.708Z,9.98
2022-12-03T00:17:51.450Z,11.43
2022-12-03T00:20:23.515Z,10.70
2022-12-03T00:22:50.664Z,10.82
2022-12-03T00:25:18.184Z,11.32
2022-12-03T00:27:45.016Z,10.88
2022-12-03T00:30:12.476Z,11.65
2022-12-03T00:32:39.265Z,11.10
2022-12-03T00:35:06.415Z,12.05
2022-12-03T00:37:35.130Z,11.25
2022-12-03T00:40:03.596Z,11.15
2022-12-03T00:42:30.427Z,12.45
2022-12-03T00:44:57.318Z,11.82
2022-12-03T00:47:24.013Z,11.93
2022-12-03T00:49:51.722Z,11.38
2022-12-03T00:52:18.667Z,11.18
2022-12-03T00:54:45.511Z,10.52
2022-12-03T00:57:12.455Z,12.00
2022-12-03T00:59:39.103Z,11.13
2022-12-03T01:02:05.992Z,11.95
2022-12-03T01:04:33.936Z,11.18
2022-12-03T01:07:01.464Z,11.93
2022-12-03T01:09:28.204Z,11.73
2022-12-03T01:11:54.997Z,11.95
2022-12-03T01:14:21.941Z,11.73
2022-12-03T01:16:49.245Z,10.07
2022-12-03T01:19:17.215Z,11.63
2022-12-03T01:21:50.100Z,12.68
2022-12-03T01:24:18.222Z,11.48
2022-12-03T01:26:45.220Z,11.43
2022-12-03T01:29:12.011Z,11.30
2022-12-03T01:31:57.285Z,11.43
2022-12-03T01:34:24.025Z,11.23
2022-12-03T01:36:52.558Z,13.00
2022-12-03T01:39:19.619Z,10.75
2022-12-03T01:41:48.132Z,11.20
2022-12-03T01:44:19.741Z,11.10
2022-12-03T01:46:47.705Z,10.30
2022-12-03T01:49:19.059Z,11.98
2022-12-03T01:51:46.676Z,11.93
2022-12-03T01:54:20.904Z,12.07
2022-12-03T01:56:48.190Z,11.50
2022-12-03T01:59:18.056Z,11.20
2022-12-03T02:01:45.048Z,12.05
2022-12-03T02:04:16.414Z,11.38
2022-12-03T02:06:44.573Z,10.73
2022-12-03T02:09:12.439Z,11.00
2022-12-03T02:11:44.456Z,11.95
2022-12-03T02:14:16.159Z,10.98
2022-12-03T02:16:43.841Z,11.38
2022-12-03T02:19:21.688Z,11.65
2022-12-03T02:22:04.429Z,10.90
2022-12-03T02:24:56.251Z,12.23
2022-12-03T02:27:23.533Z,12.27
2022-12-03T02:29:50.721Z,10.73
2022-12-03T02:32:17.578Z,11.70
2022-12-03T02:34:45.852Z,11.25
2022-12-03T02:37:18.777Z,11.95
2022-12-03T02:39:54.732Z,11.38
2022-12-03T02:42:37.000Z,11.00
2022-12-03T02:45:26.921Z,11.10
2022-12-03T02:48:02.526Z,11.15
2022-12-03T02:50:32.791Z,10.98
2022-12-03T02:53:02.967Z,11.70
2022-12-03T02:55:36.559Z,11.77
2022-12-03T02:58:05.148Z,11.52
2022-12-03T03:00:32.756Z,12.00
2022-12-03T03:03:00.859Z,11.40
2022-12-03T03:05:27.929Z,11.63
2022-12-03T03:07:56.410Z,11.70
2022-12-03T03:10:24.024Z,11.52
2022-12-03T03:12:54.042Z,11.80
2022-12-03T03:15:21.598Z,11.80
2022-12-03T03:17:48.450Z,11.75
2022-12-03T03:20:15.545Z,11.57
2022-12-03T03:22:43.063Z,11.82
2022-12-03T03:25:15.278Z,11.98
2022-12-03T03:27:42.621Z,12.40
2022-12-03T03:30:11.614Z,12.20
2022-12-03T03:32:39.482Z,11.15
2022-12-03T03:35:07.338Z,12.10
2022-12-03T03:37:34.601Z,11.68
2022-12-03T03:40:01.901Z,11.52
2022-12-03T03:42:28.849Z,10.88
2022-12-03T03:44:55.834Z,11.98
2022-12-03T03:47:23.852Z,12.07
2022-12-03T03:49:50.874Z,12.40
2022-12-03T03:52:19.755Z,11.98
2022-12-03T03:54:47.319Z,11.45
2022-12-03T03:57:14.339Z,12.30
2022-12-03T03:59:41.347Z,11.88
2022-12-03T04:02:19.057Z,12.07
2022-12-03T04:04:46.050Z,12.68
2022-12-03T04:07:13.047Z,12.25
2022-12-03T04:09:39.805Z,12.50
2022-12-03T04:12:25.154Z,12.45
2022-12-03T04:14:52.414Z,12.65
2022-12-03T04:17:19.363Z,11.98
2022-12-03T04:19:46.051Z,11.98
2022-12-03T04:22:32.729Z,13.00
2022-12-03T04:25:18.038Z,12.07
2022-12-03T04:28:11.626Z,11.93
2022-12-03T04:30:38.422Z,12.15
2022-12-03T04:33:23.929Z,13.10
2022-12-03T04:35:50.866Z,13.43
2022-12-03T04:38:17.716Z,11.93
2022-12-03T04:41:03.194Z,12.10
2022-12-03T04:43:34.800Z,12.45
2022-12-03T04:46:02.171Z,12.87
2022-12-03T04:48:29.049Z,12.02
2022-12-03T04:50:55.791Z,12.55
2022-12-03T04:53:22.580Z,12.32
2022-12-03T04:55:49.474Z,10.70
2022-12-03T04:58:16.162Z,12.05
2022-12-03T05:00:42.906Z,12.10
2022-12-03T05:03:09.765Z,11.80
2022-12-03T05:05:36.695Z,12.73
2022-12-03T05:08:03.515Z,12.13
2022-12-03T05:10:30.326Z,11.48
2022-12-03T05:12:57.323Z,12.35
2022-12-03T05:15:24.207Z,11.93
2022-12-03T05:17:50.956Z,12.27
2022-12-03T05:20:36.642Z,12.65
2022-12-03T05:23:03.422Z,12.52
2022-12-03T05:25:30.277Z,12.98
2022-12-03T05:27:56.966Z,13.13
2022-12-03T05:30:23.841Z,13.20
2022-12-03T05:32:50.745Z,12.27
2022-12-03T05:35:17.902Z,13.48
2022-12-03T05:37:44.643Z,12.75
2022-12-03T05:40:12.509Z,12.93
2022-12-03T05:42:54.457Z,12.15
2022-12-03T05:45:26.073Z,13.15
2022-12-03T05:47:54.197Z,12.77
2022-12-03T05:50:22.639Z,12.57
2022-12-03T05:52:49.816Z,12.98
2022-12-03T05:55:17.785Z,12.65
2022-12-03T05:57:44.771Z,12.48
2022-12-03T06:00:22.941Z,13.13
2022-12-03T06:02:49.758Z,12.93
2022-12-03T06:05:19.513Z,10.43
2022-12-03T06:07:47.933Z,11.88
2022-12-03T06:10:17.858Z,12.02
2022-12-03T06:12:45.038Z,12.52
2022-12-03T06:15:12.291Z,12.30
2022-12-03T06:17:38.971Z,11.45
2022-12-03T06:20:06.502Z,12.60
2022-12-03T06:22:33.281Z,12.65
2022-12-03T06:25:06.173Z,12.95
2022-12-03T06:27:33.980Z,12.15
2022-12-03T06:30:00.780Z,11.30
2022-12-03T06:32:27.409Z,11.75
2022-12-03T06:34:54.537Z,12.68
2022-12-03T06:37:21.454Z,10.80
2022-12-03T06:39:48.060Z,11.63
2022-12-03T06:42:14.882Z,11.90
2022-12-03T06:44:41.637Z,11.68
2022-12-03T06:47:08.364Z,11.35
2022-12-03T06:49:35.054Z,10.73
2022-12-03T06:52:01.896Z,11.10
2022-12-03T06:54:28.792Z,11.45
2022-12-03T06:56:55.553Z,11.80
2022-12-03T06:59:22.403Z,12.05
2022-12-03T07:01:49.372Z,11.93
2022-12-03T07:04:16.162Z,10.13
2022-12-03T07:06:42.994Z,11.10
2022-12-03T07:09:09.826Z,12.30
2022-12-03T07:11:42.270Z,12.45
2022-12-03T07:16:38.572Z,11.02
2022-12-03T07:19:06.640Z,11.77
2022-12-03T07:21:33.430Z,11.55
2022-12-03T07:24:00.397Z,11.80
2022-12-03T07:26:27.271Z,11.48
2022-12-03T07:28:54.112Z,12.00
2022-12-03T07:31:20.869Z,11.55
2022-12-03T07:33:47.695Z,11.43
2022-12-03T07:36:14.438Z,12.38
2022-12-03T07:38:41.195Z,12.15
2022-12-03T07:41:08.089Z,12.70
2022-12-03T07:43:34.914Z,12.85
2022-12-03T07:46:01.764Z,12.23
2022-12-03T07:48:28.587Z,13.10
2022-12-03T07:50:55.390Z,13.18
2022-12-03T07:53:22.238Z,12.63
2022-12-03T07:55:49.076Z,13.52
2022-12-03T07:58:15.790Z,12.30
2022-12-03T08:00:42.593Z,13.10
2022-12-03T08:03:09.349Z,13.02
2022-12-03T08:05:36.202Z,12.55
2022-12-03T08:08:03.056Z,12.82
2022-12-03T08:10:29.902Z,12.77
2022-12-03T08:12:58.978Z,13.32
2022-12-03T08:15:31.152Z,13.40
2022-12-03T08:18:12.208Z,13.98
2022-12-03T08:20:41.100Z,13.52
2022-12-03T08:23:19.726Z,12.93
2022-12-03T08:25:48.573Z,14.13
2022-12-03T08:28:21.402Z,13.95
2022-12-03T08:30:59.353Z,14.10
2022-12-03T08:33:36.752Z,13.07
2022-12-03T08:36:13.888Z,14.02
2022-12-03T08:38:40.886Z,13.75
2022-12-03T08:41:14.529Z,13.43
2022-12-03T08:43:43.733Z,13.60
2022-12-03T08:46:17.784Z,13.82
2022-12-03T08:48:49.200Z,14.07
2022-12-03T08:51:25.475Z,13.88
2022-12-03T08:54:01.810Z,13.48
2022-12-03T08:56:30.553Z,12.80
2022-12-03T08:59:18.186Z,12.23
2022-12-03T09:01:47.108Z,12.95
2022-12-03T09:04:27.123Z,12.55
2022-12-03T09:06:54.624Z,12.80
2022-12-03T09:09:22.039Z,13.23
2022-12-03T09:11:49.500Z,12.98
2022-12-03T09:14:18.878Z,12.75
2022-12-03T09:16:46.031Z,13.52
2022-12-03T09:19:12.803Z,12.73
2022-12-03T09:21:39.546Z,13.77
2022-12-03T09:24:07.765Z,13.60
2022-12-03T09:26:34.599Z,13.13
2022-12-03T09:29:01.452Z,12.90
2022-12-03T09:31:28.381Z,13.32
2022-12-03T09:33:55.142Z,13.35
2022-12-03T09:36:22.050Z,13.02
2022-12-03T09:38:48.929Z,14.05
2022-12-03T09:41:15.883Z,13.02
2022-12-03T09:44:03.322Z,13.38
2022-12-03T09:46:30.329Z,12.77
2022-12-03T09:48:57.484Z,13.68
2022-12-03T09:51:31.495Z,13.15
2022-12-03T09:54:00.255Z,12.45
2022-12-03T09:56:27.076Z,12.88
2022-12-03T09:58:54.380Z,12.63
2022-12-03T10:01:21.891Z,11.95
2022-12-03T10:03:51.088Z,12.30
2022-12-03T10:06:23.254Z,12.00
2022-12-03T10:08:54.547Z,11.80
2022-12-03T10:11:24.865Z,11.48
2022-12-03T10:13:54.590Z,12.23
2022-12-03T10:16:21.825Z,11.13
2022-12-03T10:18:54.005Z,11.95
2022-12-03T10:21:25.916Z,12.23
2022-12-03T10:24:17.766Z,13.05
2022-12-03T10:26:46.379Z,12.63
2022-12-03T10:29:34.095Z,12.68
2022-12-03T10:32:07.698Z,13.20
2022-12-03T10:34:36.605Z,13.55
2022-12-03T10:37:12.605Z,13.25
2022-12-03T10:39:56.337Z,13.65
2022-12-03T10:42:28.941Z,13.68
2022-12-03T10:47:34.933Z,13.27
2022-12-03T10:50:04.489Z,13.93
2022-12-03T10:52:31.572Z,13.48
2022-12-03T10:54:58.810Z,13.82
2022-12-03T10:57:25.813Z,12.88
2022-12-03T10:59:52.656Z,13.88
2022-12-03T11:02:22.616Z,13.95
2022-12-03T11:04:50.375Z,13.63
2022-12-03T11:07:21.932Z,12.95
2022-12-03T11:09:51.135Z,13.75
2022-12-03T11:12:19.935Z,13.88
2022-12-03T11:14:54.074Z,13.07
2022-12-03T11:17:50.793Z,15.00
2022-12-03T11:20:22.925Z,13.07
2022-12-03T11:25:26.997Z,11.82
2022-12-03T11:28:12.405Z,13.57
2022-12-03T11:30:51.280Z,12.98
2022-12-03T11:33:41.034Z,12.30
2022-12-03T11:36:11.893Z,11.82
2022-12-03T11:38:39.198Z,12.40
2022-12-03T11:41:21.044Z,11.57
2022-12-03T11:43:56.182Z,10.23
2022-12-03T11:46:27.677Z,10.77
2022-12-03T11:48:57.030Z,10.63
2022-12-03T11:51:26.331Z,10.63
2022-12-03T11:53:55.991Z,10.57
2022-12-03T11:56:28.567Z,10.40
2022-12-03T11:59:02.888Z,10.52
2022-12-03T12:01:40.992Z,10.48
2022-12-03T12:04:26.747Z,9.70
2022-12-03T12:06:53.793Z,9.95
2022-12-03T12:09:53.014Z,9.10
2022-12-03T12:12:42.676Z,10.05
2022-12-03T12:15:41.678Z,9.32
2022-12-03T12:18:42.761Z,9.35
2022-12-03T12:21:43.605Z,9.88
2022-12-03T12:24:30.400Z,9.45
2022-12-03T12:27:01.451Z,8.80
2022-12-03T12:29:28.600Z,8.43
2022-12-03T12:32:20.470Z,9.00
2022-12-03T12:34:49.617Z,9.52
2022-12-03T12:37:36.581Z,9.75
2022-12-03T12:40:12.852Z,10.05
2022-12-03T12:42:50.030Z,9.23
2022-12-03T12:45:18.672Z,10.18
2022-12-03T12:48:09.930Z,10.15
2022-12-03T12:50:44.506Z,10.65
2022-12-03T12:53:11.196Z,10.23
2022-12-03T12:55:41.309Z,10.30
2022-12-03T12:58:15.085Z,9.48
2022-12-03T13:00:42.772Z,10.23
2022-12-03T13:03:12.797Z,10.18
2022-12-03T13:05:46.941Z,10.30
2022-12-03T13:08:31.933Z,9.60
2022-12-03T13:11:01.246Z,9.55
2022-12-03T13:13:43.993Z,8.30
2022-12-03T13:16:25.712Z,9.45
2022-12-03T13:18:57.140Z,9.68
2022-12-03T13:21:43.899Z,9.45
2022-12-03T13:24:59.358Z,9.77
2022-12-03T13:27:29.637Z,10.35
2022-12-03T13:30:00.944Z,10.38
2022-12-03T13:32:38.240Z,10.02
2022-12-03T13:35:16.200Z,10.57
2022-12-03T13:37:43.292Z,9.68
2022-12-03T13:40:31.642Z,10.65
2022-12-03T13:42:59.046Z,9.77
2022-12-03T13:45:36.267Z,9.82
2022-12-03T13:48:23.229Z,10.32
2022-12-03T13:50:52.399Z,10.63
2022-12-03T13:53:26.771Z,9.85
2022-12-03T13:56:22.586Z,10.93
2022-12-03T13:58:49.378Z,11.25
2022-12-03T14:01:16.129Z,12.23
2022-12-03T14:03:42.910Z,12.38
2022-12-03T14:06:09.661Z,13.82
2022-12-03T14:08:37.415Z,11.65
2022-12-03T14:11:04.308Z,14.75
2022-12-03T14:13:31.048Z,14.68
2022-12-03T14:15:57.914Z,16.08
2022-12-03T14:18:24.638Z,14.18
2022-12-03T14:20:51.355Z,12.27
2022-12-03T14:23:18.112Z,14.35
2022-12-03T14:25:45.059Z,15.43
2022-12-03T14:28:11.927Z,14.10
2022-12-03T14:30:38.713Z,14.82
2022-12-03T14:33:05.589Z,13.30
2022-12-03T14:35:32.635Z,14.20
2022-12-03T14:37:59.377Z,14.35
2022-12-03T14:40:26.395Z,12.65
2022-12-03T14:42:53.052Z,12.65
2022-12-03T14:45:20.882Z,12.68
2022-12-03T14:47:47.564Z,13.10
2022-12-03T14:50:14.929Z,13.05
2022-12-03T14:52:41.967Z,12.32
2022-12-03T14:55:09.174Z,11.90
2022-12-03T14:57:35.857Z,11.15
2022-12-03T15:00:02.853Z,11.35
2022-12-03T15:02:30.407Z,11.82
2022-12-03T15:04:57.356Z,11.18
2022-12-03T15:07:24.250Z,11.35
2022-12-03T15:09:51.110Z,11.07
2022-12-03T15:12:17.942Z,11.00
2022-12-03T15:14:44.729Z,11.02
2022-12-03T15:17:11.512Z,11.80
2022-12-03T15:19:38.364Z,10.75
2022-12-03T15:22:05.109Z,10.02
2022-12-03T15:24:31.894Z,9.60
2022-12-03T15:26:58.774Z,10.18
2022-12-03T15:29:25.478Z,10.98
2022-12-03T15:31:52.256Z,10.75
2022-12-03T15:34:22.877Z,9.85
2022-12-03T15:36:50.361Z,9.95
2022-12-03T15:39:17.099Z,10.52
2022-12-03T15:41:43.788Z,9.85
2022-12-03T15:44:10.697Z,10.48
2022-12-03T15:46:37.589Z,10.77
2022-12-03T15:49:04.381Z,11.55
2022-12-03T15:51:31.273Z,10.98
2022-12-03T15:53:58.063Z,10.77
2022-12-03T15:56:24.958Z,14.02
2022-12-03T15:58:53.481Z,12.32
2022-12-03T16:01:20.349Z,12.82
2022-12-03T16:03:47.269Z,13.40
2022-12-03T16:06:14.891Z,13.85
2022-12-03T16:08:41.727Z,13.77
2022-12-03T16:11:08.564Z,15.23
2022-12-03T16:13:35.371Z,14.85
2022-12-03T16:16:02.376Z,14.73
2022-12-03T16:18:29.350Z,14.70
2022-12-03T16:20:56.204Z,16.52
2022-12-03T16:23:23.036Z,15.48
2022-12-03T16:25:49.899Z,15.80
2022-12-03T16:28:16.875Z,14.75
2022-12-03T16:30:43.885Z,15.10
2022-12-03T16:33:10.836Z,15.63
2022-12-03T16:35:37.741Z,14.23
2022-12-03T16:38:04.508Z,15.13
2022-12-03T16:40:31.446Z,14.85
2022-12-03T16:42:58.332Z,14.15
2022-12-03T16:45:44.281Z,14.73
2022-12-03T16:48:11.073Z,14.07
2022-12-03T16:50:38.072Z,15.77
2022-12-03T16:53:04.810Z,16.08
2022-12-03T16:55:31.712Z,14.77
2022-12-03T16:57:58.497Z,16.23
2022-12-03T17:00:25.910Z,13.43
2022-12-03T17:02:52.853Z,14.85
2022-12-03T17:05:19.917Z,15.02
2022-12-03T17:07:46.772Z,14.65
2022-12-03T17:10:13.861Z,13.80
2022-12-03T17:13:07.835Z,14.20
2022-12-03T17:15:27.695Z,14.38
2022-12-03T17:17:54.537Z,14.07
2022-12-03T17:20:21.237Z,13.23
2022-12-03T17:22:47.973Z,14.07
2022-12-03T17:25:14.817Z,14.85
2022-12-03T17:27:45.181Z,15.77
2022-12-03T17:30:13.545Z,16.00
2022-12-03T17:32:40.585Z,15.05
2022-12-03T17:35:08.171Z,15.57
2022-12-03T17:37:35.218Z,14.40
2022-12-03T17:40:02.680Z,15.18
2022-12-03T17:42:29.314Z,15.55
2022-12-03T17:44:56.196Z,15.10
2022-12-03T17:47:22.958Z,15.48
2022-12-03T17:49:49.640Z,14.40
2022-12-03T17:52:16.428Z,15.55
2022-12-03T17:55:08.948Z,16.48
2022-12-03T17:57:29.881Z,15.38
2022-12-03T17:59:57.151Z,14.95
2022-12-03T18:02:24.232Z,15.13
2022-12-03T18:04:51.081Z,15.55
2022-12-03T18:07:17.966Z,17.20
2022-12-03T18:09:44.765Z,16.05
2022-12-03T18:12:11.550Z,15.93
2022-12-03T18:14:38.340Z,14.00
2022-12-03T18:17:05.141Z,15.35
2022-12-03T18:19:31.938Z,15.38
2022-12-03T18:21:58.681Z,14.20
2022-12-03T18:24:25.661Z,14.80
2022-12-03T18:26:52.413Z,15.05
2022-12-03T18:29:19.141Z,14.40
2022-12-03T18:31:46.247Z,14.98
2022-12-03T18:34:14.210Z,13.60
2022-12-03T18:36:41.006Z,15.15
2022-12-03T18:39:10.818Z,14.73
2022-12-03T18:41:37.487Z,14.57
2022-12-03T18:44:09.517Z,14.32
2022-12-03T18:46:53.895Z,15.68
2022-12-03T18:49:21.548Z,13.85
2022-12-03T18:51:48.702Z,14.13
2022-12-03T18:54:16.395Z,13.75
2022-12-03T18:56:43.303Z,13.10
2022-12-03T18:59:11.076Z,13.13
2022-12-03T19:01:37.841Z,13.60
2022-12-03T19:04:04.842Z,13.40
2022-12-03T19:06:32.524Z,14.73
2022-12-03T19:08:59.277Z,15.02
2022-12-03T19:11:26.295Z,14.38
2022-12-03T19:13:53.159Z,14.02
2022-12-03T19:16:20.250Z,15.35
2022-12-03T19:18:47.038Z,13.88
2022-12-03T19:21:16.088Z,15.15
2022-12-03T19:24:04.191Z,14.25
2022-12-03T19:26:30.440Z,14.48
2022-12-03T19:28:57.283Z,14.40
2022-12-03T19:31:24.058Z,14.27
2022-12-03T19:33:51.742Z,15.73
2022-12-03T19:36:27.177Z,15.73
2022-12-03T19:38:57.462Z,14.32
2022-12-03T19:41:27.440Z,14.95
2022-12-03T19:43:55.903Z,14.27
2022-12-03T19:46:24.673Z,16.05
2022-12-03T19:48:51.737Z,15.18
2022-12-03T19:51:35.313Z,15.38
2022-12-03T19:54:04.829Z,14.75
2022-12-03T19:56:31.978Z,15.15
2022-12-03T19:58:59.026Z,14.73
2022-12-03T20:01:29.764Z,14.63
2022-12-03T20:03:58.191Z,15.70
2022-12-03T20:06:28.566Z,15.13
2022-12-03T20:08:57.150Z,15.02
2022-12-03T20:11:27.063Z,14.75
2022-12-03T20:13:56.493Z,15.13
2022-12-03T20:16:24.495Z,15.90
2022-12-03T20:18:55.288Z,15.40
2022-12-03T20:21:22.268Z,14.80
2022-12-03T20:23:49.060Z,15.43
2022-12-03T20:26:18.561Z,14.75
2022-12-03T20:28:46.125Z,15.52
2022-12-03T20:31:15.464Z,15.45
2022-12-03T20:33:48.330Z,15.38
2022-12-03T20:36:17.420Z,15.35
2022-12-03T20:38:45.071Z,15.43
2022-12-03T20:41:14.476Z,15.70
2022-12-03T20:43:41.810Z,15.30
2022-12-03T20:46:09.950Z,14.45
2022-12-03T20:48:37.610Z,15.27
2022-12-03T20:51:09.881Z,15.85
2022-12-03T20:53:37.346Z,15.32
2022-12-03T20:56:05.051Z,15.30
2022-12-03T20:58:32.713Z,15.93
2022-12-03T21:01:20.522Z,15.50
2022-12-03T21:03:48.678Z,15.05
2022-12-03T21:06:15.743Z,15.55
2022-12-03T21:08:43.522Z,16.08
2022-12-03T21:11:15.889Z,15.80
2022-12-03T21:13:43.910Z,16.38
2022-12-03T21:19:24.973Z,14.85
2022-12-03T21:21:51.898Z,15.38
2022-12-03T21:24:18.556Z,14.68
2022-12-03T21:26:45.620Z,16.20
2022-12-03T21:29:12.336Z,15.70
2022-12-03T21:31:39.857Z,16.38
2022-12-03T21:34:08.392Z,16.35
2022-12-03T21:36:35.281Z,17.15
2022-12-03T21:39:02.123Z,14.85
2022-12-03T21:41:29.067Z,14.88
2022-12-03T21:43:55.829Z,15.68
2022-12-03T21:47:09.832Z,15.75
2022-12-03T21:49:09.411Z,16.55
2022-12-03T21:51:36.204Z,14.25
2022-12-03T21:54:04.860Z,14.88
2022-12-03T21:56:32.970Z,16.33
2022-12-03T21:58:59.614Z,15.88
2022-12-03T22:01:26.647Z,15.73
2022-12-03T22:03:53.525Z,15.35
2022-12-03T22:06:21.099Z,17.35
2022-12-03T22:08:49.274Z,16.30
2022-12-03T22:11:18.744Z,14.70
2022-12-03T22:13:45.527Z,15.38
2022-12-03T22:16:15.032Z,16.73
2022-12-03T22:18:42.496Z,16.83
2022-12-03T22:21:12.293Z,15.18
2022-12-03T22:23:39.619Z,16.90
2022-12-03T22:26:09.209Z,14.77
2022-12-03T22:28:35.945Z,16.23
2022-12-03T22:31:07.933Z,16.33
2022-12-03T22:33:36.900Z,15.98
2022-12-03T22:36:18.279Z,16.45
2022-12-03T22:38:47.379Z,17.13
2022-12-03T22:41:14.794Z,16.30
2022-12-03T22:43:41.734Z,16.23
2022-12-03T22:46:14.828Z,16.30
2022-12-03T22:48:42.840Z,16.50
2022-12-03T22:51:14.703Z,16.23
2022-12-03T22:53:41.493Z,17.17
2022-12-03T22:56:08.490Z,16.35
2022-12-03T22:58:37.248Z,17.45
2022-12-03T23:01:04.041Z,16.08
2022-12-03T23:03:31.049Z,17.20
2022-12-03T23:05:57.904Z,17.92
2022-12-03T23:08:24.857Z,17.30
2022-12-03T23:10:52.983Z,16.73
2022-12-03T23:13:20.750Z,17.30
2022-12-03T23:15:51.824Z,18.13
2022-12-03T23:18:19.913Z,17.30
2022-12-03T23:20:51.816Z,17.45
2022-12-03T23:23:20.505Z,16.83
2022-12-03T23:26:04.756Z,16.17
2022-12-03T23:28:33.610Z,18.40
2022-12-03T23:31:00.899Z,18.98
2022-12-03T23:33:28.667Z,17.40
2022-12-03T23:35:55.504Z,17.23
2022-12-03T23:38:22.526Z,17.45
2022-12-03T23:40:49.599Z,19.00
2022-12-03T23:43:16.500Z,17.13
2022-12-03T23:45:43.336Z,18.77
2022-12-03T23:48:10.389Z,17.73
2022-12-03T23:50:41.342Z,16.63
2022-12-03T23:53:08.453Z,18.27
2022-12-03T23:55:39.823Z,17.88
2022-12-03T23:58:06.520Z,17.73
